sensor_id;sensor_type;location;lat;lon;timestamp;P1;durP1;ratioP1;P2;durP2;ratioP2
63259;SDS011;49390;51.380;0.098;2022-08-23T00:04:19;5.55;;;2.25;;
63259;SDS011;49390;51.380;0.098;2022-08-23T00:07:02;3.55;;;2.10;;
63259;SDS011;49390;51.380;0.098;2022-08-23T00:09:32;3.97;;;2.10;;
63259;SDS011;49390;51.380;0.098;2022-08-23T00:12:15;4.85;;;2.13;;
63259;SDS011;49390;51.380;0.098;2022-08-23T00:14:50;5.00;;;2.20;;
63259;SDS011;49390;51.380;0.098;2022-08-23T00:17:20;3.65;;;2.03;;
63259;SDS011;49390;51.380;0.098;2022-08-23T00:20:03;3.67;;;2.22;;
63259;SDS011;49390;51.380;0.098;2022-08-23T00:22:32;5.40;;;2.35;;
63259;SDS011;49390;51.380;0.098;2022-08-23T00:25:01;4.55;;;1.92;;
63259;SDS011;49390;51.380;0.098;2022-08-23T00:27:31;4.43;;;2.10;;
63259;SDS011;49390;51.380;0.098;2022-08-23T00:29:59;4.13;;;2.17;;
63259;SDS011;49390;51.380;0.098;2022-08-23T00:32:30;3.60;;;1.90;;
63259;SDS011;49390;51.380;0.098;2022-08-23T00:35:00;4.07;;;2.10;;
63259;SDS011;49390;51.380;0.098;2022-08-23T00:37:30;3.88;;;1.98;;
63259;SDS011;49390;51.380;0.098;2022-08-23T00:39:59;4.70;;;2.20;;
63259;SDS011;49390;51.380;0.098;2022-08-23T00:45:48;4.15;;;1.90;;
63259;SDS011;49390;51.380;0.098;2022-08-23T00:48:55;4.22;;;1.80;;
63259;SDS011;49390;51.380;0.098;2022-08-23T00:51:29;3.97;;;1.95;;
63259;SDS011;49390;51.380;0.098;2022-08-23T00:54:21;4.18;;;2.22;;
63259;SDS011;49390;51.380;0.098;2022-08-23T00:56:51;4.03;;;1.90;;
63259;SDS011;49390;51.380;0.098;2022-08-23T00:59:21;3.95;;;2.13;;
63259;SDS011;49390;51.380;0.098;2022-08-23T01:01:51;4.03;;;2.13;;
63259;SDS011;49390;51.380;0.098;2022-08-23T01:04:19;3.33;;;2.00;;
63259;SDS011;49390;51.380;0.098;2022-08-23T01:06:56;3.53;;;1.70;;
63259;SDS011;49390;51.380;0.098;2022-08-23T01:09:30;4.53;;;1.80;;
63259;SDS011;49390;51.380;0.098;2022-08-23T01:12:06;4.30;;;2.03;;
63259;SDS011;49390;51.380;0.098;2022-08-23T01:14:50;4.30;;;2.00;;
63259;SDS011;49390;51.380;0.098;2022-08-23T01:17:31;4.18;;;2.17;;
63259;SDS011;49390;51.380;0.098;2022-08-23T01:20:10;3.08;;;2.08;;
63259;SDS011;49390;51.380;0.098;2022-08-23T01:22:45;4.68;;;2.15;;
63259;SDS011;49390;51.380;0.098;2022-08-23T01:25:20;3.90;;;1.98;;
63259;SDS011;49390;51.380;0.098;2022-08-23T01:27:52;4.05;;;1.90;;
63259;SDS011;49390;51.380;0.098;2022-08-23T01:30:21;4.13;;;2.10;;
63259;SDS011;49390;51.380;0.098;2022-08-23T01:32:53;4.63;;;2.33;;
63259;SDS011;49390;51.380;0.098;2022-08-23T01:35:35;5.20;;;2.13;;
63259;SDS011;49390;51.380;0.098;2022-08-23T01:38:08;5.18;;;2.10;;
63259;SDS011;49390;51.380;0.098;2022-08-23T01:40:38;6.05;;;2.40;;
63259;SDS011;49390;51.380;0.098;2022-08-23T01:43:07;5.65;;;2.20;;
63259;SDS011;49390;51.380;0.098;2022-08-23T01:45:36;5.95;;;2.50;;
63259;SDS011;49390;51.380;0.098;2022-08-23T01:48:07;4.55;;;2.40;;
63259;SDS011;49390;51.380;0.098;2022-08-23T01:50:37;6.88;;;2.67;;
63259;SDS011;49390;51.380;0.098;2022-08-23T01:53:05;4.57;;;2.25;;
63259;SDS011;49390;51.380;0.098;2022-08-23T01:55:34;6.40;;;2.95;;
63259;SDS011;49390;51.380;0.098;2022-08-23T01:58:04;7.30;;;3.25;;
63259;SDS011;49390;51.380;0.098;2022-08-23T02:00:37;6.28;;;2.95;;
63259;SDS011;49390;51.380;0.098;2022-08-23T02:03:07;9.30;;;2.85;;
63259;SDS011;49390;51.380;0.098;2022-08-23T02:05:39;6.10;;;2.85;;
63259;SDS011;49390;51.380;0.098;2022-08-23T02:10:58;9.43;;;3.58;;
63259;SDS011;49390;51.380;0.098;2022-08-23T02:13:27;7.43;;;3.55;;
63259;SDS011;49390;51.380;0.098;2022-08-23T02:15:56;7.78;;;3.40;;
63259;SDS011;49390;51.380;0.098;2022-08-23T02:18:26;11.20;;;4.15;;
63259;SDS011;49390;51.380;0.098;2022-08-23T02:20:54;9.70;;;3.90;;
63259;SDS011;49390;51.380;0.098;2022-08-23T02:23:25;14.13;;;4.28;;
63259;SDS011;49390;51.380;0.098;2022-08-23T02:25:54;9.23;;;4.45;;
63259;SDS011;49390;51.380;0.098;2022-08-23T02:28:23;10.10;;;4.40;;
63259;SDS011;49390;51.380;0.098;2022-08-23T02:30:51;10.32;;;4.18;;
63259;SDS011;49390;51.380;0.098;2022-08-23T02:33:20;9.95;;;4.63;;
63259;SDS011;49390;51.380;0.098;2022-08-23T02:35:50;11.70;;;4.73;;
63259;SDS011;49390;51.380;0.098;2022-08-23T02:38:19;13.63;;;4.93;;
63259;SDS011;49390;51.380;0.098;2022-08-23T02:40:47;12.68;;;5.00;;
63259;SDS011;49390;51.380;0.098;2022-08-23T02:43:27;12.50;;;5.68;;
63259;SDS011;49390;51.380;0.098;2022-08-23T02:45:56;12.25;;;5.40;;
63259;SDS011;49390;51.380;0.098;2022-08-23T02:48:24;12.35;;;5.30;;
63259;SDS011;49390;51.380;0.098;2022-08-23T02:51:01;12.32;;;5.38;;
63259;SDS011;49390;51.380;0.098;2022-08-23T02:53:31;14.43;;;5.95;;
63259;SDS011;49390;51.380;0.098;2022-08-23T02:56:04;12.32;;;5.68;;
63259;SDS011;49390;51.380;0.098;2022-08-23T02:58:49;13.18;;;6.10;;
63259;SDS011;49390;51.380;0.098;2022-08-23T03:01:24;14.68;;;5.68;;
63259;SDS011;49390;51.380;0.098;2022-08-23T03:04:00;15.57;;;6.25;;
63259;SDS011;49390;51.380;0.098;2022-08-23T03:06:32;14.98;;;6.57;;
63259;SDS011;49390;51.380;0.098;2022-08-23T03:09:00;15.15;;;6.40;;
63259;SDS011;49390;51.380;0.098;2022-08-23T03:11:29;15.48;;;6.35;;
63259;SDS011;49390;51.380;0.098;2022-08-23T03:13:58;13.98;;;5.85;;
63259;SDS011;49390;51.380;0.098;2022-08-23T03:16:27;12.80;;;6.25;;
63259;SDS011;49390;51.380;0.098;2022-08-23T03:18:56;13.82;;;6.15;;
63259;SDS011;49390;51.380;0.098;2022-08-23T03:21:25;13.20;;;6.55;;
63259;SDS011;49390;51.380;0.098;2022-08-23T03:23:55;14.38;;;6.63;;
63259;SDS011;49390;51.380;0.098;2022-08-23T03:26:24;14.07;;;6.43;;
63259;SDS011;49390;51.380;0.098;2022-08-23T03:28:52;14.50;;;6.15;;
63259;SDS011;49390;51.380;0.098;2022-08-23T03:31:26;12.30;;;6.15;;
63259;SDS011;49390;51.380;0.098;2022-08-23T03:34:10;14.15;;;6.15;;
63259;SDS011;49390;51.380;0.098;2022-08-23T03:36:40;12.13;;;5.90;;
63259;SDS011;49390;51.380;0.098;2022-08-23T03:39:08;11.85;;;5.45;;
63259;SDS011;49390;51.380;0.098;2022-08-23T03:41:37;12.50;;;5.85;;
63259;SDS011;49390;51.380;0.098;2022-08-23T03:44:06;13.43;;;6.13;;
63259;SDS011;49390;51.380;0.098;2022-08-23T03:46:39;16.02;;;6.57;;
63259;SDS011;49390;51.380;0.098;2022-08-23T03:49:08;13.75;;;6.38;;
63259;SDS011;49390;51.380;0.098;2022-08-23T03:51:44;15.05;;;6.30;;
63259;SDS011;49390;51.380;0.098;2022-08-23T03:54:13;16.15;;;6.78;;
63259;SDS011;49390;51.380;0.098;2022-08-23T03:56:51;12.95;;;5.90;;
63259;SDS011;49390;51.380;0.098;2022-08-23T03:59:24;12.45;;;6.05;;
63259;SDS011;49390;51.380;0.098;2022-08-23T04:04:23;12.90;;;5.15;;
63259;SDS011;49390;51.380;0.098;2022-08-23T04:07:17;13.23;;;6.43;;
63259;SDS011;49390;51.380;0.098;2022-08-23T04:09:50;13.73;;;5.70;;
63259;SDS011;49390;51.380;0.098;2022-08-23T04:12:23;11.23;;;5.20;;
63259;SDS011;49390;51.380;0.098;2022-08-23T04:14:51;11.32;;;4.82;;
63259;SDS011;49390;51.380;0.098;2022-08-23T04:17:21;10.13;;;4.50;;
63259;SDS011;49390;51.380;0.098;2022-08-23T04:19:51;9.68;;;4.70;;
63259;SDS011;49390;51.380;0.098;2022-08-23T04:22:20;10.32;;;4.80;;
63259;SDS011;49390;51.380;0.098;2022-08-23T04:24:48;10.45;;;4.88;;
63259;SDS011;49390;51.380;0.098;2022-08-23T04:27:17;10.55;;;4.82;;
63259;SDS011;49390;51.380;0.098;2022-08-23T04:29:46;8.52;;;4.82;;
63259;SDS011;49390;51.380;0.098;2022-08-23T04:32:14;10.18;;;4.60;;
63259;SDS011;49390;51.380;0.098;2022-08-23T04:34:55;10.87;;;5.03;;
63259;SDS011;49390;51.380;0.098;2022-08-23T04:37:23;8.50;;;4.43;;
63259;SDS011;49390;51.380;0.098;2022-08-23T04:39:52;12.27;;;5.32;;
63259;SDS011;49390;51.380;0.098;2022-08-23T04:42:42;12.65;;;4.80;;
63259;SDS011;49390;51.380;0.098;2022-08-23T04:45:11;9.75;;;5.18;;
63259;SDS011;49390;51.380;0.098;2022-08-23T04:47:44;10.45;;;4.95;;
63259;SDS011;49390;51.380;0.098;2022-08-23T04:50:12;13.00;;;5.65;;
63259;SDS011;49390;51.380;0.098;2022-08-23T04:52:59;13.27;;;6.38;;
63259;SDS011;49390;51.380;0.098;2022-08-23T04:55:30;12.38;;;5.80;;
63259;SDS011;49390;51.380;0.098;2022-08-23T04:58:06;12.70;;;6.50;;
63259;SDS011;49390;51.380;0.098;2022-08-23T05:00:51;13.02;;;6.18;;
63259;SDS011;49390;51.380;0.098;2022-08-23T05:03:26;13.02;;;5.60;;
63259;SDS011;49390;51.380;0.098;2022-08-23T05:05:58;11.73;;;6.07;;
63259;SDS011;49390;51.380;0.098;2022-08-23T05:08:34;11.98;;;6.40;;
63259;SDS011;49390;51.380;0.098;2022-08-23T05:11:05;15.02;;;6.90;;
63259;SDS011;49390;51.380;0.098;2022-08-23T05:13:37;13.82;;;6.45;;
63259;SDS011;49390;51.380;0.098;2022-08-23T05:16:10;12.90;;;6.75;;
63259;SDS011;49390;51.380;0.098;2022-08-23T05:18:45;13.82;;;7.35;;
63259;SDS011;49390;51.380;0.098;2022-08-23T05:21:18;12.50;;;6.30;;
63259;SDS011;49390;51.380;0.098;2022-08-23T05:23:51;14.90;;;6.80;;
63259;SDS011;49390;51.380;0.098;2022-08-23T05:26:24;12.27;;;7.05;;
63259;SDS011;49390;51.380;0.098;2022-08-23T05:28:52;12.40;;;6.43;;
63259;SDS011;49390;51.380;0.098;2022-08-23T05:31:26;12.70;;;6.35;;
63259;SDS011;49390;51.380;0.098;2022-08-23T05:34:01;12.63;;;5.65;;
63259;SDS011;49390;51.380;0.098;2022-08-23T05:36:37;15.27;;;6.50;;
63259;SDS011;49390;51.380;0.098;2022-08-23T05:39:21;13.88;;;6.25;;
63259;SDS011;49390;51.380;0.098;2022-08-23T05:42:05;10.00;;;5.30;;
63259;SDS011;49390;51.380;0.098;2022-08-23T05:44:35;12.40;;;5.93;;
63259;SDS011;49390;51.380;0.098;2022-08-23T05:47:06;9.70;;;5.40;;
63259;SDS011;49390;51.380;0.098;2022-08-23T05:50:04;9.95;;;5.28;;
63259;SDS011;49390;51.380;0.098;2022-08-23T05:52:36;11.65;;;5.68;;
63259;SDS011;49390;51.380;0.098;2022-08-23T05:55:04;10.00;;;5.10;;
63259;SDS011;49390;51.380;0.098;2022-08-23T05:57:55;9.60;;;5.40;;
63259;SDS011;49390;51.380;0.098;2022-08-23T06:00:23;12.20;;;5.07;;
63259;SDS011;49390;51.380;0.098;2022-08-23T06:03:04;12.18;;;4.65;;
63259;SDS011;49390;51.380;0.098;2022-08-23T06:05:36;8.80;;;4.90;;
63259;SDS011;49390;51.380;0.098;2022-08-23T06:08:07;9.32;;;4.93;;
63259;SDS011;49390;51.380;0.098;2022-08-23T06:10:35;12.70;;;6.03;;
63259;SDS011;49390;51.380;0.098;2022-08-23T06:13:32;10.65;;;6.03;;
63259;SDS011;49390;51.380;0.098;2022-08-23T06:16:03;13.98;;;6.38;;
63259;SDS011;49390;51.380;0.098;2022-08-23T06:21:29;13.93;;;6.32;;
63259;SDS011;49390;51.380;0.098;2022-08-23T06:23:57;12.13;;;6.03;;
63259;SDS011;49390;51.380;0.098;2022-08-23T06:26:29;11.82;;;5.85;;
63259;SDS011;49390;51.380;0.098;2022-08-23T06:29:01;13.20;;;6.70;;
63259;SDS011;49390;51.380;0.098;2022-08-23T06:31:33;13.00;;;7.30;;
63259;SDS011;49390;51.380;0.098;2022-08-23T06:34:34;13.52;;;6.80;;
63259;SDS011;49390;51.380;0.098;2022-08-23T06:37:22;13.85;;;6.65;;
63259;SDS011;49390;51.380;0.098;2022-08-23T06:40:17;16.05;;;7.05;;
63259;SDS011;49390;51.380;0.098;2022-08-23T06:42:59;13.73;;;7.35;;
63259;SDS011;49390;51.380;0.098;2022-08-23T06:45:48;13.70;;;7.45;;
63259;SDS011;49390;51.380;0.098;2022-08-23T06:48:24;14.02;;;6.93;;
63259;SDS011;49390;51.380;0.098;2022-08-23T06:50:52;15.73;;;7.68;;
63259;SDS011;49390;51.380;0.098;2022-08-23T06:53:40;15.25;;;8.23;;
63259;SDS011;49390;51.380;0.098;2022-08-23T06:56:25;17.27;;;7.95;;
63259;SDS011;49390;51.380;0.098;2022-08-23T06:59:03;14.07;;;7.63;;
63259;SDS011;49390;51.380;0.098;2022-08-23T07:02:03;18.98;;;8.40;;
63259;SDS011;49390;51.380;0.098;2022-08-23T07:05:03;13.57;;;7.70;;
63259;SDS011;49390;51.380;0.098;2022-08-23T07:07:43;15.02;;;8.02;;
63259;SDS011;49390;51.380;0.098;2022-08-23T07:10:12;14.10;;;7.68;;
63259;SDS011;49390;51.380;0.098;2022-08-23T07:12:42;15.57;;;8.18;;
63259;SDS011;49390;51.380;0.098;2022-08-23T07:15:12;16.63;;;8.65;;
63259;SDS011;49390;51.380;0.098;2022-08-23T07:17:45;16.88;;;8.52;;
63259;SDS011;49390;51.380;0.098;2022-08-23T07:20:13;15.35;;;7.90;;
63259;SDS011;49390;51.380;0.098;2022-08-23T07:22:44;14.98;;;8.60;;
63259;SDS011;49390;51.380;0.098;2022-08-23T07:25:12;15.25;;;8.25;;
63259;SDS011;49390;51.380;0.098;2022-08-23T07:27:47;16.77;;;9.18;;
63259;SDS011;49390;51.380;0.098;2022-08-23T07:30:19;15.20;;;9.45;;
63259;SDS011;49390;51.380;0.098;2022-08-23T07:32:48;16.63;;;9.05;;
63259;SDS011;49390;51.380;0.098;2022-08-23T07:35:20;15.18;;;8.98;;
63259;SDS011;49390;51.380;0.098;2022-08-23T07:37:52;17.60;;;9.00;;
63259;SDS011;49390;51.380;0.098;2022-08-23T07:40:23;14.63;;;8.02;;
63259;SDS011;49390;51.380;0.098;2022-08-23T07:42:56;14.20;;;8.18;;
63259;SDS011;49390;51.380;0.098;2022-08-23T07:45:26;14.27;;;8.20;;
63259;SDS011;49390;51.380;0.098;2022-08-23T07:48:03;10.70;;;7.25;;
63259;SDS011;49390;51.380;0.098;2022-08-23T07:50:49;11.43;;;6.90;;
63259;SDS011;49390;51.380;0.098;2022-08-23T07:53:26;13.23;;;7.22;;
63259;SDS011;49390;51.380;0.098;2022-08-23T07:56:06;13.75;;;6.65;;
63259;SDS011;49390;51.380;0.098;2022-08-23T07:58:59;9.60;;;6.05;;
63259;SDS011;49390;51.380;0.098;2022-08-23T08:01:50;13.32;;;6.60;;
63259;SDS011;49390;51.380;0.098;2022-08-23T08:04:19;11.10;;;5.68;;
63259;SDS011;49390;51.380;0.098;2022-08-23T08:06:50;9.88;;;5.45;;
63259;SDS011;49390;51.380;0.098;2022-08-23T08:09:42;9.13;;;5.05;;
63259;SDS011;49390;51.380;0.098;2022-08-23T08:12:11;7.30;;;4.90;;
63259;SDS011;49390;51.380;0.098;2022-08-23T08:14:41;8.38;;;4.93;;
63259;SDS011;49390;51.380;0.098;2022-08-23T08:17:12;9.95;;;4.60;;
63259;SDS011;49390;51.380;0.098;2022-08-23T08:20:00;8.88;;;4.20;;
63259;SDS011;49390;51.380;0.098;2022-08-23T08:22:49;11.52;;;4.55;;
63259;SDS011;49390;51.380;0.098;2022-08-23T08:26:03;8.18;;;4.53;;
63259;SDS011;49390;51.380;0.098;2022-08-23T08:28:34;9.77;;;4.28;;
63259;SDS011;49390;51.380;0.098;2022-08-23T08:33:34;8.27;;;4.10;;
63259;SDS011;49390;51.380;0.098;2022-08-23T08:36:04;5.85;;;4.00;;
63259;SDS011;49390;51.380;0.098;2022-08-23T08:38:37;7.15;;;4.45;;
63259;SDS011;49390;51.380;0.098;2022-08-23T08:41:24;7.10;;;4.43;;
63259;SDS011;49390;51.380;0.098;2022-08-23T08:49:15;10.00;;;4.85;;
63259;SDS011;49390;51.380;0.098;2022-08-23T08:52:10;8.65;;;4.68;;
63259;SDS011;49390;51.380;0.098;2022-08-23T08:54:43;7.75;;;4.68;;
63259;SDS011;49390;51.380;0.098;2022-08-23T08:57:17;8.90;;;4.63;;
63259;SDS011;49390;51.380;0.098;2022-08-23T09:00:16;8.48;;;4.57;;
63259;SDS011;49390;51.380;0.098;2022-08-23T09:02:43;7.45;;;4.65;;
63259;SDS011;49390;51.380;0.098;2022-08-23T09:05:13;7.00;;;4.43;;
63259;SDS011;49390;51.380;0.098;2022-08-23T09:11:06;9.07;;;5.07;;
63259;SDS011;49390;51.380;0.098;2022-08-23T09:19:18;6.05;;;4.60;;
63259;SDS011;49390;51.380;0.098;2022-08-23T09:22:00;8.48;;;5.28;;
63259;SDS011;49390;51.380;0.098;2022-08-23T09:24:42;8.43;;;5.55;;
63259;SDS011;49390;51.380;0.098;2022-08-23T09:27:17;7.25;;;4.43;;
63259;SDS011;49390;51.380;0.098;2022-08-23T09:29:56;9.07;;;4.90;;
63259;SDS011;49390;51.380;0.098;2022-08-23T09:32:32;8.35;;;4.78;;
63259;SDS011;49390;51.380;0.098;2022-08-23T09:38:01;8.55;;;5.28;;
63259;SDS011;49390;51.380;0.098;2022-08-23T09:43:14;7.53;;;4.40;;
63259;SDS011;49390;51.380;0.098;2022-08-23T09:48:37;6.97;;;4.15;;
63259;SDS011;49390;51.380;0.098;2022-08-23T09:54:19;6.97;;;4.10;;
63259;SDS011;49390;51.380;0.098;2022-08-23T09:56:51;7.38;;;3.90;;
63259;SDS011;49390;51.380;0.098;2022-08-23T10:02:02;8.43;;;4.07;;
63259;SDS011;49390;51.380;0.098;2022-08-23T10:04:41;6.80;;;4.30;;
63259;SDS011;49390;51.380;0.098;2022-08-23T10:12:44;6.68;;;4.05;;
63259;SDS011;49390;51.380;0.098;2022-08-23T10:15:15;6.00;;;3.55;;
63259;SDS011;49390;51.380;0.098;2022-08-23T10:17:49;5.35;;;3.80;;
63259;SDS011;49390;51.380;0.098;2022-08-23T10:20:23;6.72;;;3.60;;
63259;SDS011;49390;51.380;0.098;2022-08-23T10:39:26;6.88;;;3.30;;
63259;SDS011;49390;51.380;0.098;2022-08-23T10:42:00;5.03;;;3.25;;
63259;SDS011;49390;51.380;0.098;2022-08-23T10:47:34;6.13;;;3.20;;
63259;SDS011;49390;51.380;0.098;2022-08-23T10:50:12;7.20;;;3.78;;
63259;SDS011;49390;51.380;0.098;2022-08-23T10:52:52;5.88;;;3.50;;
63259;SDS011;49390;51.380;0.098;2022-08-23T10:55:24;6.10;;;3.60;;
63259;SDS011;49390;51.380;0.098;2022-08-23T10:58:50;6.65;;;3.42;;
63259;SDS011;49390;51.380;0.098;2022-08-23T11:01:24;7.10;;;3.40;;
63259;SDS011;49390;51.380;0.098;2022-08-23T11:04:11;5.65;;;3.22;;
63259;SDS011;49390;51.380;0.098;2022-08-23T11:07:26;6.28;;;3.22;;
63259;SDS011;49390;51.380;0.098;2022-08-23T11:12:53;6.28;;;3.50;;
63259;SDS011;49390;51.380;0.098;2022-08-23T11:18:00;5.90;;;3.20;;
63259;SDS011;49390;51.380;0.098;2022-08-23T11:31:45;8.77;;;3.10;;
63259;SDS011;49390;51.380;0.098;2022-08-23T11:34:29;5.28;;;3.20;;
63259;SDS011;49390;51.380;0.098;2022-08-23T11:37:24;5.68;;;3.10;;
63259;SDS011;49390;51.380;0.098;2022-08-23T11:42:43;5.05;;;2.90;;
63259;SDS011;49390;51.380;0.098;2022-08-23T11:45:29;11.35;;;3.10;;
63259;SDS011;49390;51.380;0.098;2022-08-23T11:50:57;7.10;;;3.30;;
63259;SDS011;49390;51.380;0.098;2022-08-23T11:56:31;6.60;;;3.35;;
63259;SDS011;49390;51.380;0.098;2022-08-23T11:59:28;6.25;;;3.33;;
63259;SDS011;49390;51.380;0.098;2022-08-23T12:26:54;6.03;;;3.53;;
63259;SDS011;49390;51.380;0.098;2022-08-23T12:29:31;5.22;;;3.33;;
63259;SDS011;49390;51.380;0.098;2022-08-23T12:32:18;5.15;;;3.30;;
63259;SDS011;49390;51.380;0.098;2022-08-23T12:35:24;6.38;;;3.15;;
63259;SDS011;49390;51.380;0.098;2022-08-23T12:38:23;4.85;;;3.10;;
63259;SDS011;49390;51.380;0.098;2022-08-23T12:41:19;5.88;;;3.05;;
63259;SDS011;49390;51.380;0.098;2022-08-23T12:46:39;5.97;;;2.65;;
63259;SDS011;49390;51.380;0.098;2022-08-23T12:49:32;5.45;;;2.70;;
63259;SDS011;49390;51.380;0.098;2022-08-23T12:52:05;6.25;;;2.97;;
63259;SDS011;49390;51.380;0.098;2022-08-23T12:57:09;5.32;;;2.90;;
63259;SDS011;49390;51.380;0.098;2022-08-23T12:59:51;4.15;;;2.95;;
63259;SDS011;49390;51.380;0.098;2022-08-23T13:03:34;4.88;;;2.50;;
63259;SDS011;49390;51.380;0.098;2022-08-23T13:05:47;4.30;;;2.50;;
63259;SDS011;49390;51.380;0.098;2022-08-23T13:08:23;4.65;;;2.60;;
63259;SDS011;49390;51.380;0.098;2022-08-23T13:11:02;5.15;;;2.60;;
63259;SDS011;49390;51.380;0.098;2022-08-23T13:13:38;3.72;;;2.30;;
63259;SDS011;49390;51.380;0.098;2022-08-23T13:16:22;3.92;;;2.17;;
63259;SDS011;49390;51.380;0.098;2022-08-23T13:19:32;4.72;;;3.10;;
63259;SDS011;49390;51.380;0.098;2022-08-23T13:24:57;2.67;;;2.08;;
63259;SDS011;49390;51.380;0.098;2022-08-23T13:27:59;3.70;;;2.05;;
63259;SDS011;49390;51.380;0.098;2022-08-23T13:31:06;6.03;;;1.98;;
63259;SDS011;49390;51.380;0.098;2022-08-23T13:33:34;3.10;;;1.90;;
63259;SDS011;49390;51.380;0.098;2022-08-23T13:36:16;2.55;;;1.80;;
63259;SDS011;49390;51.380;0.098;2022-08-23T13:38:48;3.72;;;2.00;;
63259;SDS011;49390;51.380;0.098;2022-08-23T13:44:06;3.25;;;2.22;;
63259;SDS011;49390;51.380;0.098;2022-08-23T13:46:41;3.72;;;2.33;;
63259;SDS011;49390;51.380;0.098;2022-08-23T13:49:13;4.00;;;1.92;;
63259;SDS011;49390;51.380;0.098;2022-08-23T13:51:42;3.92;;;1.83;;
63259;SDS011;49390;51.380;0.098;2022-08-23T13:54:50;3.80;;;1.60;;
63259;SDS011;49390;51.380;0.098;2022-08-23T13:57:19;1.70;;;1.60;;
63259;SDS011;49390;51.380;0.098;2022-08-23T13:59:52;4.82;;;1.90;;
63259;SDS011;49390;51.380;0.098;2022-08-23T14:02:22;6.75;;;1.80;;
63259;SDS011;49390;51.380;0.098;2022-08-23T14:04:50;3.38;;;1.80;;
63259;SDS011;49390;51.380;0.098;2022-08-23T14:07:18;1.60;;;1.50;;
63259;SDS011;49390;51.380;0.098;2022-08-23T14:09:47;7.55;;;2.00;;
63259;SDS011;49390;51.380;0.098;2022-08-23T14:12:22;4.75;;;2.00;;
63259;SDS011;49390;51.380;0.098;2022-08-23T14:14:54;4.57;;;1.98;;
63259;SDS011;49390;51.380;0.098;2022-08-23T14:17:24;4.60;;;2.10;;
63259;SDS011;49390;51.380;0.098;2022-08-23T14:19:53;2.50;;;1.60;;
63259;SDS011;49390;51.380;0.098;2022-08-23T14:22:41;3.03;;;1.70;;
63259;SDS011;49390;51.380;0.098;2022-08-23T14:25:11;2.60;;;1.70;;
63259;SDS011;49390;51.380;0.098;2022-08-23T14:27:41;2.90;;;1.70;;
63259;SDS011;49390;51.380;0.098;2022-08-23T14:32:55;2.35;;;1.70;;
63259;SDS011;49390;51.380;0.098;2022-08-23T14:35:25;2.55;;;1.70;;
63259;SDS011;49390;51.380;0.098;2022-08-23T14:37:54;2.42;;;1.75;;
63259;SDS011;49390;51.380;0.098;2022-08-23T14:40:31;2.88;;;1.90;;
63259;SDS011;49390;51.380;0.098;2022-08-23T14:43:03;3.35;;;1.90;;
63259;SDS011;49390;51.380;0.098;2022-08-23T14:45:31;2.75;;;1.95;;
63259;SDS011;49390;51.380;0.098;2022-08-23T14:48:00;4.70;;;2.00;;
63259;SDS011;49390;51.380;0.098;2022-08-23T14:50:29;3.30;;;2.10;;
63259;SDS011;49390;51.380;0.098;2022-08-23T14:52:57;3.22;;;2.10;;
63259;SDS011;49390;51.380;0.098;2022-08-23T14:55:29;2.88;;;2.10;;
63259;SDS011;49390;51.380;0.098;2022-08-23T14:57:56;5.30;;;2.35;;
63259;SDS011;49390;51.380;0.098;2022-08-23T15:00:30;3.47;;;2.25;;
63259;SDS011;49390;51.380;0.098;2022-08-23T15:02:59;3.70;;;2.05;;
63259;SDS011;49390;51.380;0.098;2022-08-23T15:05:35;3.78;;;2.33;;
63259;SDS011;49390;51.380;0.098;2022-08-23T15:08:04;4.00;;;2.35;;
63259;SDS011;49390;51.380;0.098;2022-08-23T15:10:33;3.33;;;2.30;;
63259;SDS011;49390;51.380;0.098;2022-08-23T15:13:21;2.97;;;1.98;;
63259;SDS011;49390;51.380;0.098;2022-08-23T15:15:59;3.60;;;2.10;;
63259;SDS011;49390;51.380;0.098;2022-08-23T15:18:30;3.15;;;2.00;;
63259;SDS011;49390;51.380;0.098;2022-08-23T15:20:59;3.80;;;2.00;;
63259;SDS011;49390;51.380;0.098;2022-08-23T15:23:28;2.65;;;1.90;;
63259;SDS011;49390;51.380;0.098;2022-08-23T15:25:57;4.63;;;2.20;;
63259;SDS011;49390;51.380;0.098;2022-08-23T15:28:26;3.40;;;2.10;;
63259;SDS011;49390;51.380;0.098;2022-08-23T15:30:55;3.33;;;2.08;;
63259;SDS011;49390;51.380;0.098;2022-08-23T15:33:25;3.92;;;2.25;;
63259;SDS011;49390;51.380;0.098;2022-08-23T15:35:57;3.47;;;2.47;;
63259;SDS011;49390;51.380;0.098;2022-08-23T15:38:30;3.60;;;2.20;;
63259;SDS011;49390;51.380;0.098;2022-08-23T15:40:58;3.85;;;2.17;;
63259;SDS011;49390;51.380;0.098;2022-08-23T15:43:27;4.85;;;2.53;;
63259;SDS011;49390;51.380;0.098;2022-08-23T15:46:10;3.90;;;2.30;;
63259;SDS011;49390;51.380;0.098;2022-08-23T15:48:50;4.85;;;2.70;;
63259;SDS011;49390;51.380;0.098;2022-08-23T15:51:25;5.38;;;2.67;;
63259;SDS011;49390;51.380;0.098;2022-08-23T15:53:54;3.53;;;2.22;;
63259;SDS011;49390;51.380;0.098;2022-08-23T15:56:30;4.60;;;2.60;;
63259;SDS011;49390;51.380;0.098;2022-08-23T15:59:04;5.13;;;2.50;;
63259;SDS011;49390;51.380;0.098;2022-08-23T16:01:37;4.72;;;2.85;;
63259;SDS011;49390;51.380;0.098;2022-08-23T16:04:06;7.38;;;3.00;;
63259;SDS011;49390;51.380;0.098;2022-08-23T16:06:35;5.32;;;2.60;;
63259;SDS011;49390;51.380;0.098;2022-08-23T16:09:16;9.25;;;3.42;;
63259;SDS011;49390;51.380;0.098;2022-08-23T16:11:48;4.57;;;2.70;;
63259;SDS011;49390;51.380;0.098;2022-08-23T16:14:17;5.15;;;3.00;;
63259;SDS011;49390;51.380;0.098;2022-08-23T16:16:45;4.68;;;3.10;;
63259;SDS011;49390;51.380;0.098;2022-08-23T16:19:15;4.82;;;3.00;;
63259;SDS011;49390;51.380;0.098;2022-08-23T16:21:43;5.45;;;3.33;;
63259;SDS011;49390;51.380;0.098;2022-08-23T16:24:12;6.05;;;3.28;;
63259;SDS011;49390;51.380;0.098;2022-08-23T16:26:41;6.28;;;3.38;;
63259;SDS011;49390;51.380;0.098;2022-08-23T16:29:12;4.95;;;2.92;;
63259;SDS011;49390;51.380;0.098;2022-08-23T16:31:44;5.93;;;3.53;;
63259;SDS011;49390;51.380;0.098;2022-08-23T16:34:14;4.75;;;2.97;;
63259;SDS011;49390;51.380;0.098;2022-08-23T16:36:46;5.70;;;3.20;;
63259;SDS011;49390;51.380;0.098;2022-08-23T16:39:17;4.63;;;3.00;;
63259;SDS011;49390;51.380;0.098;2022-08-23T16:41:45;7.25;;;3.20;;
63259;SDS011;49390;51.380;0.098;2022-08-23T16:44:13;6.30;;;3.28;;
63259;SDS011;49390;51.380;0.098;2022-08-23T16:46:42;5.93;;;3.42;;
63259;SDS011;49390;51.380;0.098;2022-08-23T16:49:12;5.07;;;2.97;;
63259;SDS011;49390;51.380;0.098;2022-08-23T16:51:43;12.05;;;4.90;;
63259;SDS011;49390;51.380;0.098;2022-08-23T16:54:12;5.53;;;3.20;;
63259;SDS011;49390;51.380;0.098;2022-08-23T16:56:40;5.00;;;3.28;;
63259;SDS011;49390;51.380;0.098;2022-08-23T16:59:12;5.60;;;3.20;;
63259;SDS011;49390;51.380;0.098;2022-08-23T17:04:13;6.60;;;3.30;;
63259;SDS011;49390;51.380;0.098;2022-08-23T17:06:41;6.22;;;3.40;;
63259;SDS011;49390;51.380;0.098;2022-08-23T17:09:13;5.88;;;3.15;;
63259;SDS011;49390;51.380;0.098;2022-08-23T17:11:44;6.53;;;3.10;;
63259;SDS011;49390;51.380;0.098;2022-08-23T17:14:14;6.28;;;3.47;;
63259;SDS011;49390;51.380;0.098;2022-08-23T17:16:43;5.90;;;3.15;;
63259;SDS011;49390;51.380;0.098;2022-08-23T17:19:15;5.47;;;3.00;;
63259;SDS011;49390;51.380;0.098;2022-08-23T17:21:48;6.68;;;3.42;;
63259;SDS011;49390;51.380;0.098;2022-08-23T17:24:17;5.72;;;2.88;;
63259;SDS011;49390;51.380;0.098;2022-08-23T17:26:46;7.70;;;3.58;;
63259;SDS011;49390;51.380;0.098;2022-08-23T17:29:15;6.78;;;3.28;;
63259;SDS011;49390;51.380;0.098;2022-08-23T17:31:47;5.47;;;3.17;;
63259;SDS011;49390;51.380;0.098;2022-08-23T17:34:15;7.03;;;3.40;;
63259;SDS011;49390;51.380;0.098;2022-08-23T17:36:47;6.63;;;3.15;;
63259;SDS011;49390;51.380;0.098;2022-08-23T17:39:20;6.63;;;3.45;;
63259;SDS011;49390;51.380;0.098;2022-08-23T17:41:51;7.20;;;3.30;;
63259;SDS011;49390;51.380;0.098;2022-08-23T17:44:21;9.18;;;3.75;;
63259;SDS011;49390;51.380;0.098;2022-08-23T17:46:50;6.35;;;3.10;;